CDT,Max TemperatureF,Mean TemperatureF,Min TemperatureF,Max Dew PointF,MeanDew PointF,Min DewpointF,Max Humidity, Mean Humidity, Min Humidity, Max Sea Level PressureIn, Mean Sea Level PressureIn, Min Sea Level PressureIn, Max VisibilityMiles, Mean VisibilityMiles, Min VisibilityMiles, Max Wind SpeedMPH, Mean Wind SpeedMPH, Max Gust SpeedMPH,PrecipitationIn, CloudCover, Events, WindDirDegrees
2012-3-1,53,38,24,36,29,19,87,73,47,29.87,29.74,29.61,10,8,4,15,5,20,0.00,0,,56
2012-3-2,48,40,32,30,26,18,87,64,30,29.89,29.74,29.63,10,9,5,18,12,26,0.00,3,,337
2012-3-3,42,34,26,21,17,12,69,52,29,29.96,29.92,29.88,10,10,10,20,12,31,0.00,3,,304
2012-3-4,51,36,21,34,23,16,86,64,32,30.02,29.88,29.83,10,10,10,29,4,41,0.00,4,Rain,291
2012-3-5,55,37,19,25,20,16,86,61,23,30.28,30.19,29.99,10,9,5,22,6,28,0.00,0,,167
2012-3-6,71,58,46,46,42,30,62,48,23,29.75,29.67,29.64,10,10,10,23,17,30,0.00,2,,189
2012-3-7,64,52,39,52,41,28,81,65,59,30.00,29.74,29.61,10,10,7,32,20,40,0.00,7,,255
2012-3-8,51,38,26,25,11,-24,80,42,4,30.40,30.30,30.08,10,10,7,18,10,25,0.00,1,,308
2012-3-9,60,42,24,21,14,7,74,39,12,30.58,30.48,30.33,10,10,10,15,5,21,0.00,0,,141
2012-3-10,69,51,33,27,13,-35,65,35,4,30.31,30.21,30.07,10,10,10,25,13,34,0.00,0,,202
2012-3-11,50,44,39,45,39,28,87,75,50,30.10,29.96,29.74,10,9,5,17,7,21,0.34,7,Rain,165
2012-3-12,64,53,42,48,44,37,87,78,52,29.95,29.78,29.69,10,9,5,16,9,21,0.03,5,Rain,207
2012-3-13,80,58,37,48,41,36,93,59,23,30.02,29.95,29.83,10,8,3,17,5,24,0.00,1,,152
2012-3-14,80,68,55,61,53,45,88,65,30,29.86,29.82,29.79,10,9,5,16,10,25,0.00,3,,201
2012-3-15,78,60,42,61,50,37,88,73,44,30.02,29.96,29.91,10,8,4,10,2,,0.00,4,,202
2012-3-16,77,64,51,63,56,46,88,74,53,29.95,29.90,29.83,10,7,0,21,4,29,0.00,4,Fog,183
2012-3-17,82,73,64,61,59,55,83,67,39,29.87,29.81,29.74,10,10,10,29,16,36,0.00,3,,177
2012-3-18,80,73,66,59,58,55,78,64,42,29.81,29.77,29.73,10,10,10,31,18,37,0.00,4,,179
2012-3-19,75,67,59,59,57,54,83,71,50,29.75,29.69,29.63,10,10,7,23,14,32,0.16,6,Rain,170
2012-3-20,60,58,55,54,53,52,88,85,77,29.88,29.83,29.73,10,9,4,12,4,,0.31,7,Rain,87
2012-3-21,66,62,57,59,56,52,88,83,77,29.95,29.90,29.87,10,8,2,16,6,21,0.06,8,Rain,93
2012-3-22,66,58,51,57,49,39,88,70,37,29.98,29.92,29.86,10,10,7,17,8,22,0.11,4,Rain,146
2012-3-23,71,56,42,50,45,39,87,66,35,29.95,29.92,29.88,10,9,3,7,2,,0.00,2,Rain,12
2012-3-24,78,60,41,50,38,25,87,56,14,30.00,29.95,29.92,10,9,0,10,2,17,0.00,1,Fog,318
2012-3-25,80,62,44,55,45,37,87,59,21,30.10,30.05,29.99,10,9,3,9,2,,0.00,1,,153
2012-3-26,78,68,59,57,53,46,82,60,32,30.06,29.99,29.84,10,10,7,24,7,31,0.13,4,Rain,147
2012-3-27,78,71,64,55,42,21,73,44,13,29.86,29.83,29.77,10,10,10,21,15,28,0.00,1,,214
2012-3-28,75,57,39,45,36,30,87,47,20,30.06,29.99,29.93,10,10,2,13,2,17,0.00,2,,81
2012-3-29,68,60,51,61,53,46,88,76,63,29.93,29.82,29.64,10,10,0,21,12,47,2.08,8,Rain,117
2012-3-30,71,62,53,55,52,45,88,75,38,29.84,29.77,29.66,10,6,1,8,3,,0.00,5,,315
2012-3-31,86,72,57,63,53,39,88,65,20,29.79,29.73,29.62,10,10,7,25,9,32,0.00,1,,181